Detall de PIREP

Printer-friendly versionPDF version

[2015/12/24 10:12:00]
Flight IATA:CT1004
Pilot Number:012
Company ICAO:CAT
Aircraft Type:B752/E
PAX:180
Aircraft Registration:PAX
Departing Airport: LIEA
Destination Airport: LUKK
Alternate Airport:UKOO
Online: VATSIM
Route:MINKA UL5 SOMUN UN978 MAVIT UP129 REBLA UY572 BAPGU UT802 BUSES
Flight Level:F370
No Slew and time accel
No pause
Crash detect
Detect pilot in Cockpit between each 30 and 45 minutes
10:12 Zero fuel Weight: 178146 Lbs, Fuel Weight: 27167 Lbs
10:12 VATSIM:LIEA 240950Z 01003KT 330V040 CAVOK 13/10 Q1033
10:12 VATSIM:LUKK 241000Z 33009KT 310V020 CAVOK 12/03 Q1030 R26/CLRD95 NOSIG
10:12 X-MAS CHARTER
10:14 Parking Brakes off
10:19 Take-off
10:19 Take off Weight: 204396 Lbs
10:19 Wind: 009º @ 003 Knots Heading: 204º
10:19 POS N40º 37´ 49´´ E008º 17´ 22´´
10:19 Gear Up: 185 Knots
10:19 Flaps:2 at 186 Knots
10:19 Flaps:1 at 204 Knots
10:22 Flaps:0 at207 Knots
10:34 Wind:262º@035 Knots Heading: 067º Ground Speed: 494 Knots Altitude 35554 ft
10:35 TOC
10:35 Fuel Weight: 21438 Lb
10:49 Wind:248º@021 Knots Heading: 069º Ground Speed: 474 Knots Altitude 37608 ft
11:04 Wind:247º@020 Knots Heading: 057º Ground Speed: 475 Knots Altitude 37585 ft
11:19 Wind:200º@027 Knots Heading: 059º Ground Speed: 477 Knots Altitude 37555 ft
11:34 Wind:206º@040 Knots Heading: 070º Ground Speed: 482 Knots Altitude 37532 ft
11:49 Wind:220º@046 Knots Heading: 051º Ground Speed: 495 Knots Altitude 37536 ft
12:04 Wind:241º@051 Knots Heading: 091º Ground Speed: 492 Knots Altitude 37526 ft
12:15 TOD
12:15 Fuel Weight: 8862 Lb
12:19 Wind:271º@064 Knots Heading: 090º Ground Speed: 481 Knots Altitude 26122 ft
12:32 Flaps:1 at 213 Knots
12:32 Flaps:2 at 197 Knots
12:34 Wind:292º@011 Knots Heading: 126º Ground Speed: 218 Knots Altitude 5072 ft
12:36 Flaps:3 at 176 Knots
12:37 Flaps:4 at 169 Knots
12:38 Gear Down: 165 Knots
12:39 Flaps:5 at 158 Knots
12:39 Flaps:6 at 149 Knots
12:42 TouchDown:Rate -220 ft/min Speed: 125 Knots
12:43 VATSIM:LUKK 241230Z 34009KT CAVOK 13/01 Q1029 R26/CLRD95 NOSIG
12:43 Land
12:43 Wind:324º@011 Knots
12:43 Heading: 264º
12:43 Flight Duration: 02:24
12:43 Landing Weight: 184728 Lbs
12:43 POS N46º 55´ 42´´ E028º 56´ 24´´
12:45 Parking brakes on
12:45 Block to Block Duration: 02:31
12:45 Final Fuel: 6305 Lbls
12:45 Spent Fuel: 20862 Lbls
12:45 Flight Length: 1040 NM
12:45 TOD Land Length: 137 NM

Exportar CSV

Powered by Drupal - Modified by Danger4k